Time,TemperatureF,DewpointF,PressureIn,WindDirection,WindDirectionDegrees,WindSpeedMPH,WindSpeedGustMPH,Humidity,HourlyPrecipIn,Conditions,Clouds,dailyrainin,SoftwareType,DateUTC
2013-11-22 00:03:00,57.2,51.1,30.21,WNW,292,5.3,-999.0,80,-99.99,,,0.00,Acu-Link.com,2013-11-22 05:03:00,
2013-11-22 01:47:00,56.5,52.0,30.20,North,0,2.7,-999.0,85,-99.99,,,0.00,Acu-Link.com,2013-11-22 06:47:00,
2013-11-22 02:02:00,56.5,52.4,30.21,WSW,247,4.7,-999.0,86,-99.99,,,0.00,Acu-Link.com,2013-11-22 07:02:00,
2013-11-22 02:18:00,56.5,52.7,30.21,WNW,292,4.2,-999.0,87,-99.99,,,0.00,Acu-Link.com,2013-11-22 07:18:00,
2013-11-22 02:35:00,56.3,52.8,30.21,WSW,247,2.2,-999.0,88,-99.99,,,0.00,Acu-Link.com,2013-11-22 07:35:00,
2013-11-22 02:54:00,56.3,52.8,30.20,South,180,2.7,-999.0,88,-99.99,,,0.00,Acu-Link.com,2013-11-22 07:54:00,
2013-11-22 06:33:00,54.1,53.8,30.19,SSW,202,1.1,-999.0,99,-99.99,,,0.10,Acu-Link.com,2013-11-22 11:33:00,
2013-11-22 06:49:00,54.0,53.7,30.19,ESE,112,3.7,-999.0,99,-99.99,,,0.10,Acu-Link.com,2013-11-22 11:49:00,
2013-11-22 07:07:00,54.0,53.7,30.19,ENE,67,2.2,-999.0,99,-99.99,,,0.10,Acu-Link.com,2013-11-22 12:07:00,
2013-11-22 07:26:00,54.3,54.0,30.20,SW,225,2.7,-999.0,99,-99.99,,,0.10,Acu-Link.com,2013-11-22 12:26:00,
2013-11-22 07:41:00,54.5,54.2,30.20,WSW,247,2.2,-999.0,99,-99.99,,,0.10,Acu-Link.com,2013-11-22 12:41:00,
2013-11-22 07:57:00,54.7,54.4,30.19,West,270,2.7,-999.0,99,-99.99,,,0.10,Acu-Link.com,2013-11-22 12:57:00,
2013-11-22 08:12:00,55.0,54.7,30.19,NNW,337,3.7,-999.0,99,-99.99,,,0.11,Acu-Link.com,2013-11-22 13:12:00,
2013-11-22 08:27:00,55.2,54.9,30.19,South,180,2.7,-999.0,99,-99.99,,,0.11,Acu-Link.com,2013-11-22 13:27:00,
2013-11-22 08:42:00,55.2,54.9,30.19,SW,225,1.1,-999.0,99,-99.99,,,0.11,Acu-Link.com,2013-11-22 13:42:00,
2013-11-22 08:57:00,55.6,55.3,30.19,WSW,247,5.3,-999.0,99,-99.99,,,0.11,Acu-Link.com,2013-11-22 13:57:00,
2013-11-22 09:13:00,55.9,55.6,30.18,South,180,5.3,-999.0,99,-99.99,,,0.12,Acu-Link.com,2013-11-22 14:13:00,
2013-11-22 09:28:00,56.1,55.8,30.19,WNW,292,4.2,-999.0,99,-99.99,,,0.12,Acu-Link.com,2013-11-22 14:28:00,
2013-11-22 09:43:00,56.3,56.0,30.19,WSW,247,4.2,-999.0,99,-99.99,,,0.12,Acu-Link.com,2013-11-22 14:43:00,
2013-11-22 09:58:00,56.5,56.2,30.19,SSW,202,3.7,-999.0,99,-99.99,,,0.12,Acu-Link.com,2013-11-22 14:58:00,
2013-11-22 10:14:00,56.7,56.4,30.19,WSW,247,3.2,-999.0,99,-99.99,,,0.12,Acu-Link.com,2013-11-22 15:14:00,
2013-11-22 10:29:00,56.7,56.4,30.20,SE,135,6.3,-999.0,99,-99.99,,,0.12,Acu-Link.com,2013-11-22 15:29:00,
2013-11-22 10:44:00,56.7,56.4,30.20,West,270,2.7,-999.0,99,-99.99,,,0.12,Acu-Link.com,2013-11-22 15:44:00,
2013-11-22 10:59:00,56.8,56.5,30.19,WSW,247,3.7,-999.0,99,-99.99,,,0.13,Acu-Link.com,2013-11-22 15:59:00,
2013-11-22 11:14:00,56.8,56.5,30.19,West,270,8.9,-999.0,99,-99.99,,,0.13,Acu-Link.com,2013-11-22 16:14:00,
2013-11-22 11:29:00,56.8,56.5,30.19,SW,225,4.7,-999.0,99,-99.99,,,0.13,Acu-Link.com,2013-11-22 16:29:00,
2013-11-22 11:45:00,56.8,56.5,30.18,West,270,4.2,-999.0,99,-99.99,,,0.14,Acu-Link.com,2013-11-22 16:45:00,
2013-11-22 12:00:00,57.0,56.7,30.17,WSW,247,6.8,-999.0,99,-99.99,,,0.15,Acu-Link.com,2013-11-22 17:00:00,
2013-11-22 12:15:00,57.2,56.9,30.16,SW,225,6.3,-999.0,99,-99.99,,,0.15,Acu-Link.com,2013-11-22 17:15:00,
2013-11-22 12:30:00,57.2,56.9,30.17,WSW,247,6.3,-999.0,99,-99.99,,,0.16,Acu-Link.com,2013-11-22 17:30:00,
2013-11-22 12:45:00,57.2,56.9,30.16,WSW,247,3.7,-999.0,99,-99.99,,,0.16,Acu-Link.com,2013-11-22 17:45:00,
2013-11-22 13:01:00,57.0,56.7,30.16,West,270,4.7,-999.0,99,-99.99,,,0.16,Acu-Link.com,2013-11-22 18:01:00,
2013-11-22 13:16:00,56.8,56.5,30.15,West,270,4.2,-999.0,99,-99.99,,,0.17,Acu-Link.com,2013-11-22 18:16:00,
2013-11-22 13:31:00,56.8,56.5,30.15,WSW,247,4.7,-999.0,99,-99.99,,,0.18,Acu-Link.com,2013-11-22 18:31:00,
2013-11-22 13:46:00,56.7,56.4,30.15,West,270,3.2,-999.0,99,-99.99,,,0.19,Acu-Link.com,2013-11-22 18:46:00,
2013-11-22 14:01:00,56.5,56.2,30.15,WSW,247,4.7,-999.0,99,-99.99,,,0.21,Acu-Link.com,2013-11-22 19:01:00,
2013-11-22 14:16:00,56.5,56.2,30.15,WSW,247,5.3,-999.0,99,-99.99,,,0.25,Acu-Link.com,2013-11-22 19:16:00,
2013-11-22 14:32:00,56.1,55.8,30.15,West,270,2.7,-999.0,99,-99.99,,,0.29,Acu-Link.com,2013-11-22 19:32:00,
2013-11-22 14:47:00,55.4,55.1,30.15,West,270,2.7,-999.0,99,-99.99,,,0.33,Acu-Link.com,2013-11-22 19:47:00,
2013-11-22 15:02:00,54.5,54.2,30.15,NNW,337,2.7,-999.0,99,-99.99,,,0.34,Acu-Link.com,2013-11-22 20:02:00,
2013-11-22 15:17:00,54.1,53.8,30.16,NW,315,2.7,-999.0,99,-99.99,,,0.35,Acu-Link.com,2013-11-22 20:17:00,
2013-11-22 15:32:00,54.0,53.7,30.17,SW,225,2.7,-999.0,99,-99.99,,,0.37,Acu-Link.com,2013-11-22 20:32:00,
2013-11-22 15:47:00,52.7,52.4,30.18,NNE,22,2.7,-999.0,99,-99.99,,,0.41,Acu-Link.com,2013-11-22 20:47:00,
2013-11-22 16:03:00,52.0,51.7,30.19,North,0,5.8,-999.0,99,-99.99,,,0.44,Acu-Link.com,2013-11-22 21:03:00,
2013-11-22 16:18:00,50.9,50.6,30.20,West,270,3.2,-999.0,99,-99.99,,,0.47,Acu-Link.com,2013-11-22 21:18:00,
2013-11-22 16:33:00,50.5,50.2,30.20,NNW,337,3.7,-999.0,99,-99.99,,,0.47,Acu-Link.com,2013-11-22 21:33:00,
2013-11-22 16:48:00,50.4,50.1,30.21,West,270,3.2,-999.0,99,-99.99,,,0.47,Acu-Link.com,2013-11-22 21:48:00,
2013-11-22 17:03:00,50.2,49.9,30.21,West,270,3.7,-999.0,99,-99.99,,,0.47,Acu-Link.com,2013-11-22 22:03:00,
2013-11-22 17:18:00,50.0,49.7,30.21,NW,315,3.7,-999.0,99,-99.99,,,0.47,Acu-Link.com,2013-11-22 22:18:00,
2013-11-22 17:33:00,49.6,49.3,30.22,NW,315,2.7,-999.0,99,-99.99,,,0.48,Acu-Link.com,2013-11-22 22:33:00,
2013-11-22 17:48:00,49.3,49.0,30.22,NW,315,8.9,-999.0,99,-99.99,,,0.48,Acu-Link.com,2013-11-22 22:48:00,
2013-11-22 18:04:00,48.9,48.6,30.23,WNW,292,3.2,-999.0,99,-99.99,,,0.48,Acu-Link.com,2013-11-22 23:04:00,
2013-11-22 18:19:00,48.7,48.4,30.24,WNW,292,2.2,-999.0,99,-99.99,,,0.48,Acu-Link.com,2013-11-22 23:19:00,
2013-11-22 18:34:00,48.2,47.9,30.24,WNW,292,6.8,-999.0,99,-99.99,,,0.48,Acu-Link.com,2013-11-22 23:34:00,
2013-11-22 18:49:00,46.9,46.6,30.25,NE,45,6.8,-999.0,99,-99.99,,,0.48,Acu-Link.com,2013-11-22 23:49:00,
2013-11-22 19:04:00,46.2,45.9,30.25,NNW,337,4.2,-999.0,99,-99.99,,,0.48,Acu-Link.com,2013-11-23 00:04:00,
2013-11-22 19:19:00,45.9,45.6,30.27,NW,315,3.7,-999.0,99,-99.99,,,0.48,Acu-Link.com,2013-11-23 00:19:00,
2013-11-22 19:35:00,45.5,45.2,30.26,NW,315,2.2,-999.0,99,-99.99,,,0.48,Acu-Link.com,2013-11-23 00:35:00,
2013-11-22 19:50:00,45.3,45.0,30.27,WNW,292,5.3,-999.0,99,-99.99,,,0.48,Acu-Link.com,2013-11-23 00:50:00,
2013-11-22 20:05:00,45.1,44.8,30.26,West,270,4.2,-999.0,99,-99.99,,,0.48,Acu-Link.com,2013-11-23 01:05:00,
2013-11-22 20:20:00,44.8,44.3,30.27,NW,315,3.2,-999.0,98,-99.99,,,0.48,Acu-Link.com,2013-11-23 01:20:00,
2013-11-22 20:35:00,44.1,43.0,30.27,NW,315,3.2,-999.0,96,-99.99,,,0.48,Acu-Link.com,2013-11-23 01:35:00,
2013-11-22 20:51:00,43.9,42.3,30.28,North,0,3.7,-999.0,94,-99.99,,,0.48,Acu-Link.com,2013-11-23 01:51:00,
2013-11-22 21:06:00,43.2,41.0,30.29,NNE,22,6.3,-999.0,92,-99.99,,,0.48,Acu-Link.com,2013-11-23 02:06:00,
2013-11-22 21:21:00,42.6,40.2,30.29,North,0,4.2,-999.0,91,-99.99,,,0.48,Acu-Link.com,2013-11-23 02:21:00,
2013-11-22 21:37:00,42.3,39.6,30.30,West,270,4.2,-999.0,90,-99.99,,,0.48,Acu-Link.com,2013-11-23 02:37:00,
2013-11-22 22:07:00,42.1,39.4,30.29,NNW,337,3.2,-999.0,90,-99.99,,,0.48,Acu-Link.com,2013-11-23 03:07:00,
2013-11-22 22:22:00,41.4,38.1,30.30,NW,315,2.7,-999.0,88,-99.99,,,0.48,Acu-Link.com,2013-11-23 03:22:00,
2013-11-22 22:41:00,41.2,38.2,30.29,WNW,292,3.7,-999.0,89,-99.99,,,0.48,Acu-Link.com,2013-11-23 03:41:00,